Time;durP1;ratioP1;P1;durP2;ratioP2;P2;SDS_P1;SDS_P2;PMS_P1;PMS_P2;Temp;Humidity;BMP_temperature;BMP_pressure;BME280_temperature;BME280_humidity;BME280_pressure;Samples;Min_cycle;Max_cycle;Signal;HPM_P1;HPM_P2
2022/12/13 00:01:51;;;;;;;27.17;10.77;;;-2.60;99.90;;;;;;4987798;28;20054;-70
2022/12/13 00:04:17;;;;;;;26.45;10.57;;;-2.60;99.90;;;;;;4986278;28;20125;-70
2022/12/13 00:06:43;;;;;;;29.17;10.77;;;-2.60;99.90;;;;;;4987814;28;20137;-70
2022/12/13 00:09:12;;;;;;;19.40;8.57;;;-2.60;99.90;;;;;;4988112;28;20563;-70
2022/12/13 00:11:38;;;;;;;30.63;11.07;;;-2.60;99.90;;;;;;4969814;28;20052;-70
2022/12/13 00:14:06;;;;;;;27.02;11.75;;;-2.60;99.90;;;;;;5007973;28;20092;-70
2022/12/13 00:16:32;;;;;;;27.03;10.60;;;-2.60;99.90;;;;;;5013484;28;20053;-70
2022/12/13 00:19:02;;;;;;;17.83;9.27;;;-2.60;99.90;;;;;;5027490;28;20037;-70
2022/12/13 00:21:31;;;;;;;25.48;11.10;;;-2.60;99.90;;;;;;5019201;28;20038;-70
2022/12/13 00:23:58;;;;;;;26.73;10.35;;;-2.50;99.90;;;;;;5026673;28;20072;-70
2022/12/13 00:26:28;;;;;;;26.13;9.93;;;-2.60;99.90;;;;;;5026328;28;20451;-70
2022/12/13 00:28:55;;;;;;;23.20;9.57;;;-2.60;99.90;;;;;;5014798;28;20128;-70
2022/12/13 00:31:28;;;;;;;22.08;9.40;;;-2.60;99.90;;;;;;5005444;28;20180;-70
2022/12/13 00:33:54;;;;;;;25.80;11.02;;;-2.60;99.90;;;;;;5002298;28;20569;-70
2022/12/13 00:36:19;;;;;;;24.17;11.83;;;-2.60;99.90;;;;;;5001268;28;20116;-70
2022/12/13 00:38:45;;;;;;;28.07;11.70;;;-2.60;99.90;;;;;;5022338;28;20049;-70
2022/12/13 00:41:17;;;;;;;29.90;10.07;;;-2.60;99.90;;;;;;5006412;28;20045;-70
2022/12/13 00:43:43;;;;;;;29.17;10.88;;;-2.60;99.90;;;;;;5005757;28;20367;-70
2022/12/13 00:46:17;;;;;;;27.75;11.77;;;-2.70;99.90;;;;;;5000874;28;20136;-70
2022/12/13 00:48:47;;;;;;;30.42;10.70;;;-2.60;99.90;;;;;;4987980;28;20050;-70
2022/12/13 00:51:13;;;;;;;26.77;10.90;;;-2.70;99.90;;;;;;5009592;28;20493;-70
2022/12/13 00:53:38;;;;;;;25.53;10.20;;;-2.70;99.90;;;;;;5005280;28;20244;-69
2022/12/13 00:56:12;;;;;;;24.00;9.70;;;-2.80;99.90;;;;;;5001084;28;20053;-70
2022/12/13 00:58:39;;;;;;;23.83;9.98;;;-2.80;99.90;;;;;;4984663;28;20050;-70
2022/12/13 01:01:09;;;;;;;;;;;-2.80;99.90;;;;;;5001731;28;20134;-70
2022/12/13 01:03:36;;;;;;;26.55;9.70;;;-2.80;99.90;;;;;;5006163;28;19928;-69
2022/12/13 01:06:08;;;;;;;23.85;10.27;;;-2.80;99.90;;;;;;5009479;28;20104;-69
2022/12/13 01:08:34;;;;;;;23.25;9.15;;;-2.80;99.90;;;;;;5014458;28;20053;-70
2022/12/13 01:10:59;;;;;;;23.33;10.70;;;-2.90;99.90;;;;;;5012641;28;20037;-69
2022/12/13 01:13:25;;;;;;;25.97;9.90;;;-2.90;99.90;;;;;;5007986;28;20044;-70
2022/12/13 01:15:51;;;;;;;25.10;9.93;;;-2.90;99.90;;;;;;5020377;28;20449;-69
2022/12/13 01:18:17;;;;;;;26.00;10.10;;;-2.90;99.90;;;;;;4990057;28;20376;-69
2022/12/13 01:20:57;;;;;;;21.30;8.57;;;-2.90;99.90;;;;;;4990102;28;20042;-69
2022/12/13 01:23:22;;;;;;;22.42;9.73;;;-2.90;99.90;;;;;;5023667;28;20281;-73
2022/12/13 01:25:48;;;;;;;20.67;9.30;;;-2.90;99.90;;;;;;4989352;28;20112;-74
2022/12/13 01:28:14;;;;;;;22.43;8.77;;;-2.90;99.90;;;;;;5005824;28;20037;-69
2022/12/13 01:30:39;;;;;;;26.23;9.47;;;-2.90;99.90;;;;;;5024628;28;20525;-69
2022/12/13 01:33:05;;;;;;;20.50;9.27;;;-3.00;99.90;;;;;;5024127;28;20051;-69
2022/12/13 01:35:33;;;;;;;23.63;9.87;;;-2.90;99.90;;;;;;5025475;28;20558;-69
2022/12/13 01:37:58;;;;;;;29.75;9.90;;;-2.90;99.90;;;;;;5026832;28;20080;-70
2022/12/13 01:42:51;;;;;;;22.70;9.23;;;-2.90;99.90;;;;;;5004052;28;20518;-70
2022/12/13 01:45:27;;;;;;;27.20;10.07;;;-2.80;99.90;;;;;;5007507;28;20057;-70
2022/12/13 01:48:00;;;;;;;22.13;9.20;;;-2.80;99.90;;;;;;5008942;28;20127;-70
2022/12/13 01:50:33;;;;;;;21.98;9.90;;;-2.80;99.90;;;;;;5006397;28;20354;-70
2022/12/13 01:52:59;;;;;;;31.80;10.05;;;-2.70;99.90;;;;;;5010834;28;20054;-70
2022/12/13 01:55:29;;;;;;;23.75;8.93;;;-2.70;99.90;;;;;;5005977;28;20102;-70
2022/12/13 01:57:58;;;;;;;25.63;9.38;;;-2.70;99.90;;;;;;5005050;28;20378;-70
2022/12/13 02:00:25;;;;;;;24.83;10.25;;;-2.60;99.90;;;;;;5007560;28;20038;-70
2022/12/13 02:02:52;;;;;;;;;;;-2.60;99.90;;;;;;5007158;28;20045;-70
2022/12/13 02:05:34;;;;;;;24.08;9.80;;;-2.60;99.90;;;;;;5013004;28;19968;-70
2022/12/13 02:08:01;;;;;;;23.10;9.93;;;-2.60;99.90;;;;;;5000239;28;20368;-70
2022/12/13 02:10:28;;;;;;;23.27;8.82;;;-2.60;99.90;;;;;;5006911;28;20049;-70
2022/12/13 02:12:54;;;;;;;23.08;8.95;;;-2.60;99.90;;;;;;5004759;28;20380;-70
2022/12/13 02:15:21;;;;;;;25.67;8.95;;;-2.60;99.90;;;;;;5006032;28;20156;-70
2022/12/13 02:17:55;;;;;;;16.10;7.80;;;-2.60;99.90;;;;;;5002992;28;20041;-70
2022/12/13 02:20:41;;;;;;;21.58;9.23;;;-2.60;99.90;;;;;;5006933;28;20140;-70
2022/12/13 02:23:21;;;;;;;22.42;9.07;;;-2.60;99.90;;;;;;5007580;28;20529;-68
2022/12/13 02:26:07;;;;;;;27.45;9.60;;;-2.60;99.90;;;;;;5008490;28;20387;-68
2022/12/13 02:28:56;;;;;;;18.67;9.05;;;-2.70;99.90;;;;;;5008622;28;20443;-68
2022/12/13 02:31:50;;;;;;;23.60;10.07;;;-2.70;99.90;;;;;;5016670;28;20129;-70
2022/12/13 02:34:25;;;;;;;24.13;9.15;;;-2.80;99.90;;;;;;4992762;28;20093;-70
2022/12/13 02:37:15;;;;;;;21.98;9.68;;;-2.70;99.90;;;;;;5002636;28;20554;-70
2022/12/13 02:39:47;;;;;;;21.95;9.52;;;-2.80;99.90;;;;;;5022115;28;20158;-71
2022/12/13 02:42:48;;;;;;;23.00;9.65;;;-2.90;99.90;;;;;;4991787;28;20476;-70
2022/12/13 02:45:45;;;;;;;18.08;8.95;;;-2.90;99.90;;;;;;5013157;28;20480;-71
2022/12/13 02:48:14;;;;;;;19.98;9.35;;;-2.90;99.90;;;;;;5007465;28;20465;-70
2022/12/13 02:50:41;;;;;;;23.00;8.73;;;-2.90;99.90;;;;;;5005065;28;20053;-70
2022/12/13 02:53:09;;;;;;;24.55;9.95;;;-2.90;99.90;;;;;;5008362;28;20070;-70
2022/12/13 02:55:38;;;;;;;20.63;9.10;;;-3.00;99.90;;;;;;5004090;28;20431;-70
2022/12/13 02:58:04;;;;;;;23.83;9.63;;;-3.00;99.90;;;;;;5006459;28;20065;-70
2022/12/13 03:01:13;;;;;;;21.63;9.10;;;-3.00;99.90;;;;;;5006544;28;20100;-70
2022/12/13 03:04:10;;;;;;;21.92;9.13;;;-3.00;99.90;;;;;;5006871;28;20408;-71
2022/12/13 03:07:16;;;;;;;21.38;8.90;;;-3.00;99.90;;;;;;5011053;28;20064;-70
2022/12/13 03:09:50;;;;;;;23.58;9.02;;;-3.10;99.90;;;;;;5002990;28;20042;-71
2022/12/13 03:15:22;;;;;;;20.52;8.48;;;-3.10;99.90;;;;;;5015087;28;20100;-70
2022/12/13 03:17:58;;;;;;;19.70;8.50;;;-3.20;99.90;;;;;;5006430;28;20049;-71
2022/12/13 03:20:26;;;;;;;23.15;9.25;;;-3.20;99.90;;;;;;5002228;28;20125;-71
2022/12/13 03:22:53;;;;;;;23.55;9.45;;;-3.20;99.90;;;;;;5004486;28;20041;-70
2022/12/13 03:25:21;;;;;;;21.60;9.52;;;-3.20;99.90;;;;;;5006115;28;20042;-70
2022/12/13 03:27:47;;;;;;;19.10;8.43;;;-3.20;99.90;;;;;;5004627;28;20072;-68
2022/12/13 03:30:13;;;;;;;25.77;9.33;;;-3.30;99.90;;;;;;5004083;28;20129;-70
2022/12/13 03:32:38;;;;;;;24.80;10.43;;;-3.30;99.90;;;;;;5004763;28;20046;-70
2022/12/13 03:35:07;;;;;;;22.43;9.00;;;-3.30;99.90;;;;;;5000823;28;20056;-70
2022/12/13 03:37:35;;;;;;;22.75;8.38;;;-3.30;99.90;;;;;;5006833;28;20510;-70
2022/12/13 03:40:04;;;;;;;22.13;9.73;;;-3.40;99.90;;;;;;5008464;28;20038;-70
2022/12/13 03:42:30;;;;;;;21.52;9.82;;;-3.40;99.90;;;;;;5006320;28;20077;-70
2022/12/13 03:44:56;;;;;;;23.27;10.07;;;-3.30;99.90;;;;;;5004423;28;20033;-71
2022/12/13 03:47:21;;;;;;;22.20;10.23;;;-3.30;99.90;;;;;;5004900;28;20117;-70
2022/12/13 03:49:47;;;;;;;23.00;9.07;;;-3.30;99.90;;;;;;5009062;28;20044;-70
2022/12/13 03:52:12;;;;;;;24.30;8.67;;;-3.20;99.90;;;;;;5008471;28;20428;-70
2022/12/13 03:54:38;;;;;;;24.80;9.10;;;-3.30;99.90;;;;;;5005527;28;20069;-70
2022/12/13 03:57:04;;;;;;;21.30;8.30;;;-3.30;99.90;;;;;;5008418;28;20196;-70
2022/12/13 03:59:30;;;;;;;17.43;7.87;;;-3.30;99.90;;;;;;5003706;28;20149;-71
2022/12/13 04:01:56;;;;;;;16.35;8.63;;;-3.30;99.90;;;;;;5005928;28;20038;-70
2022/12/13 04:04:21;;;;;;;22.80;8.70;;;-3.30;99.90;;;;;;5005203;28;20161;-70
2022/12/13 04:06:47;;;;;;;24.60;9.40;;;-3.40;99.90;;;;;;5006757;28;20479;-70
2022/12/13 04:09:12;;;;;;;26.87;9.70;;;-3.40;99.90;;;;;;4997512;28;20253;-70
2022/12/13 04:14:22;;;;;;;24.70;8.48;;;-3.40;99.90;;;;;;5003920;28;20034;-71
2022/12/13 04:16:48;;;;;;;18.53;8.90;;;-3.40;99.90;;;;;;5006113;28;20459;-71
2022/12/13 04:19:14;;;;;;;21.27;8.63;;;-3.40;99.90;;;;;;5006597;28;20111;-70
2022/12/13 04:21:39;;;;;;;23.53;9.03;;;-3.40;99.90;;;;;;5005465;28;20581;-70
2022/12/13 04:24:05;;;;;;;18.07;8.47;;;-3.40;99.90;;;;;;5004996;28;20029;-70
2022/12/13 04:26:31;;;;;;;25.77;8.20;;;-3.40;99.90;;;;;;5005697;28;20540;-70
2022/12/13 04:28:56;;;;;;;24.40;9.37;;;-3.30;99.90;;;;;;5005330;28;20049;-70
2022/12/13 04:31:22;;;;;;;19.57;8.93;;;-3.30;99.90;;;;;;5000098;28;20045;-70
2022/12/13 04:33:48;;;;;;;21.17;8.37;;;-3.30;99.90;;;;;;5007357;28;20050;-70
2022/12/13 04:36:18;;;;;;;22.00;8.97;;;-3.30;99.90;;;;;;5009423;28;20033;-70
2022/12/13 04:38:45;;;;;;;16.67;8.20;;;-3.30;99.90;;;;;;5005155;28;20628;-70
2022/12/13 04:41:15;;;;;;;20.70;8.90;;;-3.20;99.90;;;;;;5002277;28;20042;-70
2022/12/13 04:43:41;;;;;;;23.67;9.25;;;-3.30;99.90;;;;;;4987614;28;20079;-70
2022/12/13 04:46:07;;;;;;;24.00;8.47;;;-3.30;99.90;;;;;;5003681;28;20471;-70
2022/12/13 04:48:33;;;;;;;24.37;8.73;;;-3.40;99.90;;;;;;5004638;28;20080;-70
2022/12/13 04:51:00;;;;;;;23.52;9.00;;;-3.40;99.90;;;;;;5001082;28;20546;-70
2022/12/13 04:53:29;;;;;;;24.52;9.43;;;-3.40;99.90;;;;;;5005402;28;20049;-70
2022/12/13 04:55:55;;;;;;;17.45;8.63;;;-3.40;99.90;;;;;;5005608;28;20045;-71
2022/12/13 04:58:20;;;;;;;25.97;10.37;;;-3.50;99.90;;;;;;5012515;28;20041;-70
2022/12/13 05:05:39;;;;;;;23.00;9.57;;;-3.50;99.90;;;;;;4995714;28;20062;-70
2022/12/13 05:08:06;;;;;;;23.17;9.18;;;-3.50;99.90;;;;;;4968063;28;20558;-69
2022/12/13 05:10:32;;;;;;;20.67;8.75;;;-3.50;99.90;;;;;;4996022;28;20537;-70
2022/12/13 05:12:59;;;;;;;17.85;8.52;;;-3.50;99.90;;;;;;4991765;28;20034;-70
2022/12/13 05:15:24;;;;;;;21.35;8.82;;;-3.50;99.90;;;;;;4976663;28;20081;-70
2022/12/13 05:17:50;;;;;;;22.83;9.00;;;-3.50;99.90;;;;;;4981503;28;20351;-70
2022/12/13 05:20:15;;;;;;;23.13;9.77;;;-3.50;99.90;;;;;;4994242;28;20038;-71
2022/12/13 05:22:41;;;;;;;28.00;10.90;;;-3.50;99.90;;;;;;4985635;28;20385;-70
2022/12/13 05:25:07;;;;;;;18.93;9.17;;;-3.50;99.90;;;;;;4990252;28;20492;-70
2022/12/13 05:27:33;;;;;;;26.58;9.73;;;-3.50;99.90;;;;;;4986728;28;20126;-70
2022/12/13 05:29:59;;;;;;;22.50;8.75;;;-3.50;99.90;;;;;;4996716;28;20046;-71
2022/12/13 05:32:24;;;;;;;23.83;8.80;;;-3.60;99.90;;;;;;4991896;28;20045;-70
2022/12/13 05:34:50;;;;;;;22.53;9.87;;;-3.60;99.90;;;;;;4988309;28;20227;-70
2022/12/13 05:37:16;;;;;;;21.87;9.20;;;-3.60;99.90;;;;;;4981206;28;20089;-70
2022/12/13 05:39:41;;;;;;;22.15;8.80;;;-3.60;99.90;;;;;;4987573;28;20042;-70
2022/12/13 05:42:08;;;;;;;20.70;9.40;;;-3.60;99.90;;;;;;4984198;28;20129;-71
2022/12/13 05:44:34;;;;;;;21.95;8.48;;;-3.70;99.90;;;;;;4982044;28;20314;-71
2022/12/13 05:47:00;;;;;;;27.47;10.13;;;-3.70;99.90;;;;;;4973743;28;20314;-70
2022/12/13 05:49:26;;;;;;;18.33;9.10;;;-3.70;99.90;;;;;;4992104;28;20607;-71
2022/12/13 05:51:51;;;;;;;22.50;8.73;;;-3.70;99.90;;;;;;4990255;28;20819;-71
2022/12/13 05:54:17;;;;;;;20.70;8.50;;;-3.80;99.90;;;;;;4989793;28;20792;-70
2022/12/13 05:56:43;;;;;;;17.90;7.63;;;-3.70;99.90;;;;;;4991561;28;20089;-70
2022/12/13 05:59:08;;;;;;;19.73;8.30;;;-3.80;99.90;;;;;;4985087;28;20038;-70
2022/12/13 06:01:34;;;;;;;20.97;8.60;;;-3.80;99.90;;;;;;4985991;28;20046;-70
2022/12/13 06:04:00;;;;;;;27.27;8.27;;;-3.80;99.90;;;;;;4990781;28;20066;-70
2022/12/13 06:06:25;;;;;;;21.00;9.37;;;-3.80;99.90;;;;;;4990454;28;20042;-70
2022/12/13 06:08:51;;;;;;;19.00;8.47;;;-3.80;99.90;;;;;;4994000;28;20052;-70
2022/12/13 06:11:16;;;;;;;21.87;8.93;;;-3.80;99.90;;;;;;4981181;28;20047;-70
2022/12/13 06:13:42;;;;;;;24.07;8.87;;;-3.80;99.90;;;;;;4988880;28;20090;-71
2022/12/13 06:16:08;;;;;;;18.83;10.00;;;-3.80;99.90;;;;;;4988450;28;20038;-70
2022/12/13 06:18:35;;;;;;;18.50;9.33;;;-3.80;99.90;;;;;;4988866;28;20045;-71
2022/12/13 06:21:02;;;;;;;;;;;-3.90;99.90;;;;;;4985826;28;20136;-70
2022/12/13 06:23:29;;;;;;;20.52;8.95;;;-3.80;99.90;;;;;;5000585;28;19941;-70
2022/12/13 06:25:55;;;;;;;16.50;7.82;;;-3.80;99.90;;;;;;4984978;28;20042;-70
2022/12/13 06:28:21;;;;;;;19.92;10.10;;;-3.80;99.90;;;;;;4984731;28;20046;-71
2022/12/13 06:30:51;;;;;;;24.42;9.88;;;-3.80;99.90;;;;;;4989459;28;20033;-71
2022/12/13 06:33:18;;;;;;;22.42;8.75;;;-3.90;99.90;;;;;;4987732;28;20047;-71
2022/12/13 06:35:43;;;;;;;17.50;8.80;;;-3.90;99.90;;;;;;4994586;28;20046;-70
2022/12/13 06:38:09;;;;;;;17.63;7.40;;;-3.90;99.90;;;;;;4987885;28;20045;-71
2022/12/13 06:40:35;;;;;;;21.00;9.10;;;-3.80;99.90;;;;;;4989992;28;20046;-71
2022/12/13 06:43:00;;;;;;;20.63;8.97;;;-3.80;99.90;;;;;;4992664;28;20125;-71
2022/12/13 06:45:26;;;;;;;22.83;9.23;;;-3.80;99.90;;;;;;5004398;28;20074;-71
2022/12/13 06:47:52;;;;;;;21.00;9.20;;;-3.80;99.90;;;;;;4983987;28;20496;-70
2022/12/13 06:50:18;;;;;;;19.17;8.70;;;-3.80;99.90;;;;;;4967355;28;20117;-72
2022/12/13 06:52:45;;;;;;;23.25;8.65;;;-3.80;99.90;;;;;;4988014;28;20083;-74
2022/12/13 06:55:11;;;;;;;22.73;9.57;;;-3.80;99.90;;;;;;4988346;28;20282;-73
2022/12/13 06:57:36;;;;;;;25.10;10.13;;;-3.80;99.90;;;;;;5003453;28;20491;-72
2022/12/13 07:00:04;;;;;;;18.33;8.47;;;-3.80;99.90;;;;;;5006821;28;20042;-73
2022/12/13 07:02:29;;;;;;;21.48;9.95;;;-3.80;99.90;;;;;;4987873;28;20038;-73
2022/12/13 07:04:55;;;;;;;20.05;9.32;;;-3.80;99.90;;;;;;4992235;28;20384;-74
2022/12/13 07:07:22;;;;;;;22.70;9.53;;;-3.80;99.90;;;;;;4986396;28;20066;-76
2022/12/13 07:09:47;;;;;;;20.38;8.80;;;-3.80;99.90;;;;;;5010195;28;20042;-77
2022/12/13 07:12:13;;;;;;;23.40;9.90;;;-3.80;99.90;;;;;;4995871;28;20072;-72
2022/12/13 07:14:38;;;;;;;17.90;8.87;;;-3.80;99.90;;;;;;4987589;28;20042;-72
2022/12/13 07:17:04;;;;;;;22.77;8.77;;;-3.70;99.90;;;;;;4983591;28;20043;-71
2022/12/13 07:19:30;;;;;;;19.67;8.53;;;-3.80;99.90;;;;;;4987472;28;20038;-71
2022/12/13 07:21:56;;;;;;;22.40;10.85;;;-3.80;99.90;;;;;;4987073;28;20196;-71
2022/12/13 07:24:22;;;;;;;17.53;8.37;;;-3.80;99.90;;;;;;4997032;28;20237;-69
2022/12/13 07:26:47;;;;;;;21.70;9.33;;;-3.80;99.90;;;;;;4987778;28;20160;-71
2022/12/13 07:29:13;;;;;;;18.50;8.53;;;-3.80;99.90;;;;;;4988596;28;20555;-71
2022/12/13 07:31:38;;;;;;;19.93;8.93;;;-3.80;99.90;;;;;;4986313;28;20484;-71
2022/12/13 07:34:04;;;;;;;22.03;8.60;;;-3.80;99.90;;;;;;4986664;28;20077;-70
2022/12/13 07:36:30;;;;;;;23.00;9.50;;;-3.80;99.90;;;;;;5001200;28;20050;-70
2022/12/13 07:38:56;;;;;;;26.37;9.70;;;-3.80;99.90;;;;;;4985030;28;20038;-70
2022/12/13 07:41:24;;;;;;;20.67;8.90;;;-3.80;99.90;;;;;;4985648;28;20046;-71
2022/12/13 07:43:50;;;;;;;20.48;9.73;;;-3.80;99.90;;;;;;5002383;28;20467;-70
2022/12/13 07:46:16;;;;;;;23.27;10.15;;;-3.80;99.90;;;;;;4983969;28;20451;-71
2022/12/13 07:48:41;;;;;;;22.13;10.90;;;-3.70;99.90;;;;;;4982633;28;20049;-70
2022/12/13 07:51:12;;;;;;;20.73;8.90;;;-3.80;99.90;;;;;;4985376;28;20100;-69
2022/12/13 07:53:39;;;;;;;18.75;8.25;;;-3.80;99.90;;;;;;4982493;28;21211;-69
2022/12/13 07:56:06;;;;;;;20.05;9.30;;;-3.80;99.90;;;;;;4990784;28;20566;-69
2022/12/13 07:58:32;;;;;;;26.50;10.30;;;-3.70;99.90;;;;;;4966400;28;20041;-69
2022/12/13 08:01:00;;;;;;;23.17;10.70;;;-3.70;99.90;;;;;;4991638;28;20404;-70
2022/12/13 08:03:26;;;;;;;21.85;9.02;;;-3.70;99.90;;;;;;4998852;28;20038;-70
2022/12/13 08:06:07;;;;;;;20.88;9.65;;;-3.70;99.90;;;;;;4989939;28;20046;-70
2022/12/13 08:08:33;;;;;;;28.50;11.15;;;-3.70;99.90;;;;;;4973481;28;20049;-69
2022/12/13 08:11:14;;;;;;;28.37;11.00;;;-3.60;99.90;;;;;;5009207;28;20350;-69
2022/12/13 08:13:40;;;;;;;24.45;10.10;;;-3.60;99.90;;;;;;5001999;28;20045;-71
2022/12/13 08:16:09;;;;;;;22.60;10.25;;;-3.60;99.90;;;;;;4987626;28;20031;-69
2022/12/13 08:18:35;;;;;;;25.02;11.10;;;-3.60;99.90;;;;;;5007942;28;20072;-74
2022/12/13 08:21:03;;;;;;;25.85;10.15;;;-3.60;99.90;;;;;;5009056;28;20101;-69
2022/12/13 08:23:32;;;;;;;21.85;10.10;;;-3.60;99.90;;;;;;4993745;28;20401;-74
2022/12/13 08:25:59;;;;;;;25.33;10.95;;;-3.50;99.90;;;;;;5014319;28;20036;-71
2022/12/13 08:28:25;;;;;;;22.98;10.10;;;-3.50;99.90;;;;;;5002425;28;20049;-74
2022/12/13 08:30:51;;;;;;;28.95;10.65;;;-3.40;99.90;;;;;;4989268;28;20046;-70
2022/12/13 08:33:18;;;;;;;24.50;10.05;;;-3.40;99.90;;;;;;4995321;28;20073;-72
2022/12/13 08:35:44;;;;;;;27.15;10.35;;;-3.30;99.90;;;;;;4977593;28;20069;-79
2022/12/13 08:38:10;;;;;;;25.50;10.63;;;-3.30;99.90;;;;;;4990353;28;20454;-70
2022/12/13 08:40:36;;;;;;;22.45;9.80;;;-3.20;99.90;;;;;;5003705;28;20042;-70
2022/12/13 08:43:02;;;;;;;27.58;11.52;;;-3.20;99.90;;;;;;4987590;28;20046;-70
2022/12/13 08:45:29;;;;;;;24.95;11.82;;;-3.10;99.90;;;;;;4990011;28;20443;-69
2022/12/13 08:47:56;;;;;;;;;;;-3.00;99.90;;;;;;4985830;28;20058;-71
2022/12/13 08:50:22;;;;;;;22.13;10.17;;;-3.00;99.90;;;;;;4977820;28;19930;-71
2022/12/13 08:52:47;;;;;;;26.93;10.67;;;-2.90;99.90;;;;;;4984489;28;20396;-71
2022/12/13 08:55:14;;;;;;;20.50;10.47;;;-2.90;99.90;;;;;;4991706;28;20038;-69
2022/12/13 08:57:41;;;;;;;;;;;-2.80;99.90;;;;;;4985690;28;20404;-69
2022/12/13 09:00:10;;;;;;;21.23;9.10;;;-2.70;99.90;;;;;;4986019;28;20371;-69
2022/12/13 09:02:36;;;;;;;24.02;11.05;;;-2.70;99.90;;;;;;4997350;28;20121;-69
2022/12/13 09:05:02;;;;;;;21.95;10.57;;;-2.60;99.90;;;;;;4985001;28;20555;-69
2022/12/13 09:07:28;;;;;;;22.77;10.38;;;-2.60;99.90;;;;;;4993788;28;20054;-69
2022/12/13 09:09:53;;;;;;;25.33;11.20;;;-2.50;99.90;;;;;;4993731;28;20068;-70
2022/12/13 09:12:19;;;;;;;23.50;9.73;;;-2.40;99.90;;;;;;4985958;28;20282;-69
2022/12/13 09:14:45;;;;;;;26.33;11.87;;;-2.30;99.90;;;;;;4982939;28;20046;-70
2022/12/13 09:17:13;;;;;;;28.02;12.18;;;-2.30;99.90;;;;;;4986629;28;20057;-69
2022/12/13 09:19:39;;;;;;;29.80;11.20;;;-2.20;99.90;;;;;;4984307;28;20277;-69
2022/12/13 09:22:04;;;;;;;25.90;11.63;;;-2.20;99.90;;;;;;4988356;28;20203;-69
2022/12/13 09:24:30;;;;;;;29.70;11.37;;;-2.10;99.90;;;;;;4987088;28;20385;-69
2022/12/13 09:26:56;;;;;;;26.33;12.07;;;-2.00;99.90;;;;;;5009249;28;20038;-69
2022/12/13 09:29:21;;;;;;;34.13;13.57;;;-2.00;99.90;;;;;;4991406;28;20050;-68
2022/12/13 09:31:47;;;;;;;27.33;12.47;;;-1.90;99.90;;;;;;4982312;28;20057;-67
2022/12/13 09:34:12;;;;;;;27.40;12.13;;;-1.80;99.90;;;;;;4989252;28;20084;-68
2022/12/13 09:36:38;;;;;;;27.17;11.57;;;-1.80;99.90;;;;;;4991965;28;20568;-68
2022/12/13 09:39:04;;;;;;;30.50;11.38;;;-1.70;99.90;;;;;;4980799;28;20050;-68
2022/12/13 09:41:53;;;;;;;27.27;12.00;;;-1.70;99.90;;;;;;4986682;28;20185;-68
2022/12/13 09:44:29;;;;;;;27.50;11.05;;;-1.60;99.90;;;;;;5001652;28;20054;-68
2022/12/13 09:46:57;;;;;;;29.52;12.52;;;-1.60;99.90;;;;;;4981335;28;20115;-68
2022/12/13 09:49:52;;;;;;;28.05;11.93;;;-1.50;99.90;;;;;;4989114;28;20506;-68
2022/12/13 09:52:19;;;;;;;26.58;12.15;;;-1.40;99.90;;;;;;4975094;28;20042;-68
2022/12/13 09:54:46;;;;;;;25.90;12.43;;;-1.40;99.90;;;;;;4995063;28;20503;-68
2022/12/13 09:57:21;;;;;;;28.75;12.25;;;-1.30;99.90;;;;;;4983164;28;20154;-68
2022/12/13 09:59:47;;;;;;;27.13;10.82;;;-1.20;99.90;;;;;;4985659;28;20042;-68
2022/12/13 10:02:30;;;;;;;25.10;12.23;;;-1.20;99.90;;;;;;4986750;28;20516;-68
2022/12/13 10:05:30;;;;;;;25.40;12.65;;;-1.10;99.90;;;;;;4984846;28;20459;-69
2022/12/13 10:07:59;;;;;;;28.27;11.65;;;-1.00;99.90;;;;;;4962126;28;20471;-68
2022/12/13 10:10:25;;;;;;;27.92;12.15;;;-1.00;99.90;;;;;;4988872;28;20117;-70
2022/12/13 10:13:00;;;;;;;24.17;11.18;;;-0.90;99.90;;;;;;4989186;28;20046;-68
2022/12/13 10:15:30;;;;;;;27.63;12.10;;;-0.80;99.90;;;;;;4985783;28;20058;-67
2022/12/13 10:17:56;;;;;;;25.95;12.52;;;-0.80;99.90;;;;;;4992354;28;20054;-68
2022/12/13 10:20:27;;;;;;;27.00;11.07;;;-0.70;99.90;;;;;;4991899;28;20049;-68
2022/12/13 10:22:53;;;;;;;22.65;10.77;;;-0.70;99.90;;;;;;4994908;28;20041;-68
2022/12/13 10:25:53;;;;;;;27.83;12.80;;;-0.60;99.90;;;;;;4985970;28;20042;-69
2022/12/13 10:28:32;;;;;;;22.90;10.40;;;-0.50;99.90;;;;;;4993437;28;20089;-68
2022/12/13 10:30:58;;;;;;;24.98;11.13;;;-0.40;99.90;;;;;;4981409;28;20042;-68
2022/12/13 10:33:36;;;;;;;26.38;11.65;;;-0.40;99.90;;;;;;4988173;28;20042;-68
2022/12/13 10:36:14;;;;;;;23.38;11.77;;;-0.30;99.90;;;;;;4992208;28;20050;-67
2022/12/13 10:38:42;;;;;;;25.13;10.23;;;-0.20;99.90;;;;;;4989955;28;20144;-67
2022/12/13 10:41:28;;;;;;;28.08;11.63;;;-0.10;99.90;;;;;;4993159;28;20396;-68
2022/12/13 10:44:18;;;;;;;25.55;10.85;;;0.00;99.90;;;;;;4991093;28;20070;-68
2022/12/13 10:47:23;;;;;;;28.00;12.15;;;0.00;99.90;;;;;;4993487;28;20054;-68
2022/12/13 10:49:54;;;;;;;22.83;11.23;;;0.10;99.90;;;;;;4980798;28;20111;-67
2022/12/13 10:52:30;;;;;;;23.05;11.07;;;0.10;99.90;;;;;;4985936;28;20046;-68
2022/12/13 10:55:01;;;;;;;24.80;11.13;;;0.20;99.90;;;;;;4993817;28;20090;-68
2022/12/13 10:57:26;;;;;;;26.40;10.95;;;0.30;99.90;;;;;;4987477;28;20133;-69
2022/12/13 10:59:52;;;;;;;26.33;11.80;;;0.40;99.90;;;;;;4994149;28;20038;-68
2022/12/13 11:02:29;;;;;;;28.50;11.87;;;0.50;99.90;;;;;;5003832;23;20377;-70
2022/12/13 11:04:57;;;;;;;29.48;11.82;;;0.50;99.90;;;;;;4990806;28;20042;-70
2022/12/13 11:07:28;;;;;;;21.63;10.52;;;0.60;99.90;;;;;;4972537;28;20126;-70
2022/12/13 11:09:54;;;;;;;27.48;12.65;;;0.60;99.90;;;;;;4989342;28;20124;-70
2022/12/13 11:12:23;;;;;;;29.38;11.93;;;0.60;99.90;;;;;;4989072;28;20049;-71
2022/12/13 11:14:58;;;;;;;31.52;12.23;;;0.70;99.90;;;;;;4987643;28;20062;-70
2022/12/13 11:17:27;;;;;;;22.17;10.75;;;0.80;99.90;;;;;;4990547;28;20108;-70
2022/12/13 11:19:56;;;;;;;23.85;10.80;;;0.90;99.90;;;;;;4988846;28;20054;-70
2022/12/13 11:22:30;;;;;;;26.27;11.23;;;0.90;99.90;;;;;;4988547;28;20241;-70
2022/12/13 11:25:04;;;;;;;25.98;11.40;;;1.00;99.90;;;;;;4972650;28;20042;-69
2022/12/13 11:27:48;;;;;;;24.92;10.55;;;1.00;99.90;;;;;;4970959;28;20420;-70
2022/12/13 11:30:36;;;;;;;24.80;10.65;;;1.10;99.90;;;;;;4964489;28;20473;-70
2022/12/13 11:33:25;;;;;;;22.77;10.02;;;1.10;99.90;;;;;;4969184;28;20042;-70
2022/12/13 11:36:01;;;;;;;24.13;10.30;;;1.20;99.90;;;;;;4969762;28;20042;-70
2022/12/13 11:38:56;;;;;;;26.80;11.07;;;1.30;99.90;;;;;;4978822;28;20070;-70
2022/12/13 11:41:39;;;;;;;18.77;9.70;;;1.40;99.90;;;;;;4988774;28;20125;-70
2022/12/13 11:44:32;;;;;;;24.83;10.80;;;1.40;99.90;;;;;;4988190;28;20113;-70
2022/12/13 11:46:59;;;;;;;21.17;10.05;;;1.50;99.90;;;;;;4934415;28;20062;-70
2022/12/13 11:49:38;;;;;;;22.00;10.45;;;1.50;99.90;;;;;;4988851;28;20558;-70
2022/12/13 11:52:26;;;;;;;23.55;10.05;;;1.60;99.90;;;;;;4990244;28;20078;-70
2022/12/13 11:54:59;;;;;;;18.83;9.07;;;1.70;99.90;;;;;;4987948;28;20073;-70
2022/12/13 11:57:51;;;;;;;21.30;9.00;;;1.80;99.90;;;;;;4988227;28;20384;-70
2022/12/13 12:00:17;;;;;;;21.92;9.48;;;1.80;99.90;;;;;;4979013;28;20138;-71
2022/12/13 12:02:48;;;;;;;22.43;9.57;;;1.90;99.90;;;;;;4988021;28;20455;-70
2022/12/13 12:05:31;;;;;;;21.17;10.05;;;2.00;99.90;;;;;;4987694;28;20123;-70
2022/12/13 12:08:22;;;;;;;23.40;10.05;;;2.00;99.90;;;;;;4988045;28;20050;-70
2022/12/13 12:10:53;;;;;;;21.50;9.48;;;2.10;99.90;;;;;;4987791;28;20358;-71
2022/12/13 12:13:26;;;;;;;23.77;9.57;;;2.20;99.90;;;;;;4972483;28;20477;-71
2022/12/13 12:16:11;;;;;;;18.10;9.20;;;2.20;99.90;;;;;;4975631;28;20229;-71
2022/12/13 12:18:36;;;;;;;20.17;9.68;;;2.20;99.90;;;;;;4969948;28;20050;-71
2022/12/13 12:21:27;;;;;;;21.20;9.37;;;2.30;99.90;;;;;;4968314;28;20209;-72
2022/12/13 12:24:05;;;;;;;19.90;9.30;;;2.30;99.90;;;;;;4974175;28;20121;-71
2022/12/13 12:27:05;;;;;;;17.08;8.80;;;2.30;99.90;;;;;;4987790;28;20366;-70
2022/12/13 12:30:00;;;;;;;22.55;9.43;;;2.30;99.90;;;;;;4981176;28;20070;-70
2022/12/13 12:32:40;;;;;;;23.92;10.25;;;2.40;99.90;;;;;;4982215;28;20058;-71
2022/12/13 12:35:20;;;;;;;18.08;9.23;;;2.50;99.90;;;;;;4990289;28;20046;-70
2022/12/13 12:37:55;;;;;;;21.65;8.88;;;2.50;99.90;;;;;;4969378;28;20043;-70
2022/12/13 12:40:54;;;;;;;18.58;9.32;;;2.50;99.90;;;;;;4968459;28;20054;-71
2022/12/13 12:43:26;;;;;;;21.75;10.00;;;2.50;99.90;;;;;;4969725;28;20138;-70
2022/12/13 12:46:21;;;;;;;25.98;10.27;;;2.40;99.90;;;;;;4970481;28;20056;-71
2022/12/13 12:49:28;;;;;;;24.13;9.32;;;2.40;99.90;;;;;;4987220;28;20052;-71
2022/12/13 12:52:04;;;;;;;23.05;9.75;;;2.40;99.90;;;;;;4988402;28;20042;-70
2022/12/13 12:54:50;;;;;;;18.63;8.63;;;2.30;99.90;;;;;;4987316;28;20069;-71
2022/12/13 12:57:43;;;;;;;19.73;9.05;;;2.20;99.90;;;;;;4987495;28;20042;-71
2022/12/13 13:00:14;;;;;;;20.98;9.20;;;2.10;99.90;;;;;;4988692;28;20583;-70
2022/12/13 13:03:06;;;;;;;20.25;10.48;;;2.10;99.90;;;;;;4988462;28;20042;-71
2022/12/13 13:05:41;;;;;;;18.88;9.18;;;2.00;99.90;;;;;;4969601;28;20086;-70
2022/12/13 13:08:29;;;;;;;21.30;9.70;;;1.90;99.90;;;;;;4967531;28;20101;-71